sensor_id;sensor_type;location;lat;lon;timestamp;P1;durP1;ratioP1;P2;durP2;ratioP2
32964;SDS011;19317;48.226;11.686;2023-04-15T00:02:17;4.27;;;2.93;;
32964;SDS011;19317;48.226;11.686;2023-04-15T00:07:08;5.80;;;3.20;;
32964;SDS011;19317;48.226;11.686;2023-04-15T00:11:58;3.00;;;2.67;;
32964;SDS011;19317;48.226;11.686;2023-04-15T00:16:48;3.20;;;2.90;;
32964;SDS011;19317;48.226;11.686;2023-04-15T00:21:39;4.20;;;3.00;;
32964;SDS011;19317;48.226;11.686;2023-04-15T00:26:29;4.87;;;3.70;;
32964;SDS011;19317;48.226;11.686;2023-04-15T00:31:20;3.00;;;2.70;;
32964;SDS011;19317;48.226;11.686;2023-04-15T00:36:10;4.67;;;3.00;;
32964;SDS011;19317;48.226;11.686;2023-04-15T00:41:01;3.30;;;3.00;;
32964;SDS011;19317;48.226;11.686;2023-04-15T00:45:52;4.50;;;3.33;;
32964;SDS011;19317;48.226;11.686;2023-04-15T00:50:45;7.03;;;3.20;;
32964;SDS011;19317;48.226;11.686;2023-04-15T00:55:36;3.87;;;3.07;;
32964;SDS011;19317;48.226;11.686;2023-04-15T01:00:26;5.27;;;3.33;;
32964;SDS011;19317;48.226;11.686;2023-04-15T01:05:17;4.17;;;3.50;;
32964;SDS011;19317;48.226;11.686;2023-04-15T01:10:08;4.33;;;3.47;;
32964;SDS011;19317;48.226;11.686;2023-04-15T01:14:58;5.13;;;3.50;;
32964;SDS011;19317;48.226;11.686;2023-04-15T01:19:50;3.90;;;3.20;;
32964;SDS011;19317;48.226;11.686;2023-04-15T01:24:40;4.33;;;3.37;;
32964;SDS011;19317;48.226;11.686;2023-04-15T01:29:38;4.50;;;3.47;;
32964;SDS011;19317;48.226;11.686;2023-04-15T01:34:29;4.57;;;3.40;;
32964;SDS011;19317;48.226;11.686;2023-04-15T01:39:19;4.07;;;3.67;;
32964;SDS011;19317;48.226;11.686;2023-04-15T01:44:10;3.60;;;3.30;;
32964;SDS011;19317;48.226;11.686;2023-04-15T01:49:00;4.27;;;3.50;;
32964;SDS011;19317;48.226;11.686;2023-04-15T01:53:50;4.53;;;3.83;;
32964;SDS011;19317;48.226;11.686;2023-04-15T01:58:41;3.83;;;3.50;;
32964;SDS011;19317;48.226;11.686;2023-04-15T02:03:32;3.83;;;3.43;;
32964;SDS011;19317;48.226;11.686;2023-04-15T02:08:22;5.60;;;3.60;;
32964;SDS011;19317;48.226;11.686;2023-04-15T02:13:13;4.30;;;3.90;;
32964;SDS011;19317;48.226;11.686;2023-04-15T02:18:03;4.10;;;3.70;;
32964;SDS011;19317;48.226;11.686;2023-04-15T02:22:54;4.93;;;3.90;;
32964;SDS011;19317;48.226;11.686;2023-04-15T02:27:44;6.93;;;4.00;;
32964;SDS011;19317;48.226;11.686;2023-04-15T02:32:35;4.67;;;3.50;;
32964;SDS011;19317;48.226;11.686;2023-04-15T02:37:25;4.70;;;4.07;;
32964;SDS011;19317;48.226;11.686;2023-04-15T02:42:16;4.33;;;3.93;;
32964;SDS011;19317;48.226;11.686;2023-04-15T02:47:06;6.50;;;3.90;;
32964;SDS011;19317;48.226;11.686;2023-04-15T02:51:57;4.73;;;3.80;;
32964;SDS011;19317;48.226;11.686;2023-04-15T02:56:47;4.53;;;3.80;;
32964;SDS011;19317;48.226;11.686;2023-04-15T03:01:38;4.03;;;3.53;;
32964;SDS011;19317;48.226;11.686;2023-04-15T03:06:28;5.90;;;3.90;;
32964;SDS011;19317;48.226;11.686;2023-04-15T03:11:20;5.53;;;3.90;;
32964;SDS011;19317;48.226;11.686;2023-04-15T03:16:10;4.80;;;4.10;;
32964;SDS011;19317;48.226;11.686;2023-04-15T03:21:00;4.37;;;3.53;;
32964;SDS011;19317;48.226;11.686;2023-04-15T03:25:51;4.50;;;3.87;;
32964;SDS011;19317;48.226;11.686;2023-04-15T03:30:41;4.53;;;3.57;;
32964;SDS011;19317;48.226;11.686;2023-04-15T03:35:32;4.43;;;4.03;;
32964;SDS011;19317;48.226;11.686;2023-04-15T03:40:22;5.40;;;3.90;;
32964;SDS011;19317;48.226;11.686;2023-04-15T03:45:13;4.30;;;3.90;;
32964;SDS011;19317;48.226;11.686;2023-04-15T03:50:03;6.13;;;3.80;;
32964;SDS011;19317;48.226;11.686;2023-04-15T03:54:54;5.67;;;3.83;;
32964;SDS011;19317;48.226;11.686;2023-04-15T03:59:45;5.73;;;3.70;;
32964;SDS011;19317;48.226;11.686;2023-04-15T04:04:35;5.50;;;4.23;;
32964;SDS011;19317;48.226;11.686;2023-04-15T04:09:26;4.20;;;3.80;;
32964;SDS011;19317;48.226;11.686;2023-04-15T04:14:16;5.80;;;4.10;;
32964;SDS011;19317;48.226;11.686;2023-04-15T04:19:07;3.90;;;3.40;;
32964;SDS011;19317;48.226;11.686;2023-04-15T04:23:57;4.90;;;4.03;;
32964;SDS011;19317;48.226;11.686;2023-04-15T04:28:48;4.60;;;4.20;;
32964;SDS011;19317;48.226;11.686;2023-04-15T04:33:38;5.67;;;3.70;;
32964;SDS011;19317;48.226;11.686;2023-04-15T04:38:29;4.53;;;3.50;;
32964;SDS011;19317;48.226;11.686;2023-04-15T04:43:19;4.93;;;3.83;;
32964;SDS011;19317;48.226;11.686;2023-04-15T04:48:10;4.87;;;3.97;;
32964;SDS011;19317;48.226;11.686;2023-04-15T04:53:00;3.80;;;3.40;;
32964;SDS011;19317;48.226;11.686;2023-04-15T04:57:51;4.17;;;3.63;;
32964;SDS011;19317;48.226;11.686;2023-04-15T05:02:41;3.73;;;3.43;;
32964;SDS011;19317;48.226;11.686;2023-04-15T05:07:32;5.30;;;3.53;;
32964;SDS011;19317;48.226;11.686;2023-04-15T05:12:22;4.77;;;3.50;;
32964;SDS011;19317;48.226;11.686;2023-04-15T05:17:12;4.70;;;3.50;;
32964;SDS011;19317;48.226;11.686;2023-04-15T05:22:03;3.90;;;3.00;;
32964;SDS011;19317;48.226;11.686;2023-04-15T05:26:53;5.07;;;3.37;;
32964;SDS011;19317;48.226;11.686;2023-04-15T05:31:44;2.93;;;2.73;;
32964;SDS011;19317;48.226;11.686;2023-04-15T05:36:34;5.73;;;3.27;;
32964;SDS011;19317;48.226;11.686;2023-04-15T05:41:25;5.67;;;3.30;;
32964;SDS011;19317;48.226;11.686;2023-04-15T05:46:15;3.27;;;2.70;;
32964;SDS011;19317;48.226;11.686;2023-04-15T05:51:06;3.40;;;3.10;;
32964;SDS011;19317;48.226;11.686;2023-04-15T05:55:56;4.37;;;2.87;;
32964;SDS011;19317;48.226;11.686;2023-04-15T06:00:46;3.23;;;2.63;;
32964;SDS011;19317;48.226;11.686;2023-04-15T06:05:37;3.63;;;3.23;;
32964;SDS011;19317;48.226;11.686;2023-04-15T06:10:27;3.83;;;2.80;;
32964;SDS011;19317;48.226;11.686;2023-04-15T06:15:18;3.17;;;2.73;;
32964;SDS011;19317;48.226;11.686;2023-04-15T06:20:09;4.93;;;3.13;;
32964;SDS011;19317;48.226;11.686;2023-04-15T06:25:00;3.33;;;2.83;;
32964;SDS011;19317;48.226;11.686;2023-04-15T06:29:50;3.10;;;2.20;;
32964;SDS011;19317;48.226;11.686;2023-04-15T06:34:40;4.47;;;3.07;;
32964;SDS011;19317;48.226;11.686;2023-04-15T06:39:31;3.20;;;2.47;;
32964;SDS011;19317;48.226;11.686;2023-04-15T06:44:21;2.37;;;2.17;;
32964;SDS011;19317;48.226;11.686;2023-04-15T06:49:12;3.00;;;2.70;;
32964;SDS011;19317;48.226;11.686;2023-04-15T06:54:03;2.17;;;2.03;;
32964;SDS011;19317;48.226;11.686;2023-04-15T06:58:53;3.00;;;2.70;;
32964;SDS011;19317;48.226;11.686;2023-04-15T07:03:44;4.53;;;2.60;;
32964;SDS011;19317;48.226;11.686;2023-04-15T07:08:34;5.20;;;2.43;;
32964;SDS011;19317;48.226;11.686;2023-04-15T07:13:25;3.20;;;2.47;;
32964;SDS011;19317;48.226;11.686;2023-04-15T07:18:15;2.50;;;2.20;;
32964;SDS011;19317;48.226;11.686;2023-04-15T07:23:06;4.00;;;2.63;;
32964;SDS011;19317;48.226;11.686;2023-04-15T07:27:56;2.17;;;1.97;;
32964;SDS011;19317;48.226;11.686;2023-04-15T07:32:47;4.37;;;2.37;;
32964;SDS011;19317;48.226;11.686;2023-04-15T07:37:37;2.80;;;2.60;;
32964;SDS011;19317;48.226;11.686;2023-04-15T07:42:28;3.37;;;2.80;;
32964;SDS011;19317;48.226;11.686;2023-04-15T07:47:18;2.97;;;2.30;;
32964;SDS011;19317;48.226;11.686;2023-04-15T07:52:08;3.20;;;2.50;;
32964;SDS011;19317;48.226;11.686;2023-04-15T07:56:59;4.13;;;2.70;;
32964;SDS011;19317;48.226;11.686;2023-04-15T08:01:49;2.17;;;2.07;;
32964;SDS011;19317;48.226;11.686;2023-04-15T08:06:40;4.10;;;2.47;;
32964;SDS011;19317;48.226;11.686;2023-04-15T08:11:30;2.40;;;2.20;;
32964;SDS011;19317;48.226;11.686;2023-04-15T08:16:22;3.37;;;2.40;;
32964;SDS011;19317;48.226;11.686;2023-04-15T08:21:13;2.77;;;2.40;;
32964;SDS011;19317;48.226;11.686;2023-04-15T08:26:05;3.23;;;2.60;;
32964;SDS011;19317;48.226;11.686;2023-04-15T08:30:58;2.43;;;2.23;;
32964;SDS011;19317;48.226;11.686;2023-04-15T08:35:49;3.93;;;2.50;;
32964;SDS011;19317;48.226;11.686;2023-04-15T08:40:40;2.73;;;2.50;;
32964;SDS011;19317;48.226;11.686;2023-04-15T08:45:32;2.63;;;2.43;;
32964;SDS011;19317;48.226;11.686;2023-04-15T08:50:23;3.60;;;2.77;;
32964;SDS011;19317;48.226;11.686;2023-04-15T08:55:15;3.10;;;2.77;;
32964;SDS011;19317;48.226;11.686;2023-04-15T09:00:06;2.80;;;2.60;;
32964;SDS011;19317;48.226;11.686;2023-04-15T09:04:56;3.03;;;2.63;;
32964;SDS011;19317;48.226;11.686;2023-04-15T09:09:47;3.70;;;2.70;;
32964;SDS011;19317;48.226;11.686;2023-04-15T09:14:39;3.40;;;2.80;;
32964;SDS011;19317;48.226;11.686;2023-04-15T09:19:30;4.00;;;2.90;;
32964;SDS011;19317;48.226;11.686;2023-04-15T09:24:21;3.43;;;2.70;;
32964;SDS011;19317;48.226;11.686;2023-04-15T09:29:11;3.03;;;2.73;;
32964;SDS011;19317;48.226;11.686;2023-04-15T09:34:02;4.57;;;2.87;;
32964;SDS011;19317;48.226;11.686;2023-04-15T09:38:53;3.70;;;3.40;;
32964;SDS011;19317;48.226;11.686;2023-04-15T09:43:48;3.37;;;3.07;;
32964;SDS011;19317;48.226;11.686;2023-04-15T09:48:38;3.90;;;3.60;;
32964;SDS011;19317;48.226;11.686;2023-04-15T09:53:29;4.17;;;3.77;;
32964;SDS011;19317;48.226;11.686;2023-04-15T09:58:24;4.23;;;3.03;;
32964;SDS011;19317;48.226;11.686;2023-04-15T10:03:21;3.90;;;3.40;;
32964;SDS011;19317;48.226;11.686;2023-04-15T10:08:12;4.23;;;3.23;;
32964;SDS011;19317;48.226;11.686;2023-04-15T10:13:02;3.60;;;3.30;;
32964;SDS011;19317;48.226;11.686;2023-04-15T10:17:53;3.90;;;3.60;;
32964;SDS011;19317;48.226;11.686;2023-04-15T10:22:46;4.27;;;3.23;;
32964;SDS011;19317;48.226;11.686;2023-04-15T10:27:38;4.00;;;3.43;;
32964;SDS011;19317;48.226;11.686;2023-04-15T10:32:29;3.97;;;3.57;;
32964;SDS011;19317;48.226;11.686;2023-04-15T10:37:21;5.10;;;3.80;;
32964;SDS011;19317;48.226;11.686;2023-04-15T10:42:22;4.90;;;4.03;;
32964;SDS011;19317;48.226;11.686;2023-04-15T10:47:13;4.40;;;4.00;;
32964;SDS011;19317;48.226;11.686;2023-04-15T10:52:05;5.00;;;3.67;;
32964;SDS011;19317;48.226;11.686;2023-04-15T11:01:54;3.97;;;3.57;;
32964;SDS011;19317;48.226;11.686;2023-04-15T11:06:45;6.00;;;3.83;;
32964;SDS011;19317;48.226;11.686;2023-04-15T11:16:54;4.47;;;3.70;;
32964;SDS011;19317;48.226;11.686;2023-04-15T11:21:44;16.10;;;4.73;;
32964;SDS011;19317;48.226;11.686;2023-04-15T11:26:35;3.93;;;3.57;;
32964;SDS011;19317;48.226;11.686;2023-04-15T11:31:25;3.73;;;3.40;;
32964;SDS011;19317;48.226;11.686;2023-04-15T11:36:17;3.73;;;3.33;;
32964;SDS011;19317;48.226;11.686;2023-04-15T11:41:07;6.53;;;3.67;;
32964;SDS011;19317;48.226;11.686;2023-04-15T11:45:59;4.07;;;3.60;;
32964;SDS011;19317;48.226;11.686;2023-04-15T11:50:57;4.10;;;3.23;;
32964;SDS011;19317;48.226;11.686;2023-04-15T11:55:51;4.90;;;3.50;;
32964;SDS011;19317;48.226;11.686;2023-04-15T12:11:09;7.80;;;5.20;;
32964;SDS011;19317;48.226;11.686;2023-04-15T12:16:02;8.53;;;5.13;;
32964;SDS011;19317;48.226;11.686;2023-04-15T12:20:52;6.07;;;4.03;;
32964;SDS011;19317;48.226;11.686;2023-04-15T12:25:43;6.30;;;3.80;;
32964;SDS011;19317;48.226;11.686;2023-04-15T12:30:49;3.87;;;3.47;;
32964;SDS011;19317;48.226;11.686;2023-04-15T12:35:39;3.77;;;3.47;;
32964;SDS011;19317;48.226;11.686;2023-04-15T12:40:30;4.60;;;3.43;;
32964;SDS011;19317;48.226;11.686;2023-04-15T12:45:20;5.03;;;3.60;;
32964;SDS011;19317;48.226;11.686;2023-04-15T12:50:11;4.80;;;3.80;;
32964;SDS011;19317;48.226;11.686;2023-04-15T12:55:01;4.87;;;4.13;;
32964;SDS011;19317;48.226;11.686;2023-04-15T12:59:52;6.40;;;4.70;;
32964;SDS011;19317;48.226;11.686;2023-04-15T13:04:42;6.10;;;4.33;;
32964;SDS011;19317;48.226;11.686;2023-04-15T13:09:32;4.93;;;4.17;;
32964;SDS011;19317;48.226;11.686;2023-04-15T13:14:23;5.07;;;4.57;;
32964;SDS011;19317;48.226;11.686;2023-04-15T13:19:13;4.90;;;4.27;;
32964;SDS011;19317;48.226;11.686;2023-04-15T13:24:04;5.23;;;4.73;;
32964;SDS011;19317;48.226;11.686;2023-04-15T13:28:54;6.33;;;4.47;;
32964;SDS011;19317;48.226;11.686;2023-04-15T13:33:45;5.93;;;4.87;;
32964;SDS011;19317;48.226;11.686;2023-04-15T13:38:35;7.10;;;5.13;;
32964;SDS011;19317;48.226;11.686;2023-04-15T13:43:26;5.87;;;5.27;;
32964;SDS011;19317;48.226;11.686;2023-04-15T13:48:16;4.63;;;4.23;;
32964;SDS011;19317;48.226;11.686;2023-04-15T13:53:07;6.50;;;4.20;;
32964;SDS011;19317;48.226;11.686;2023-04-15T13:57:57;4.70;;;4.17;;
32964;SDS011;19317;48.226;11.686;2023-04-15T14:02:48;4.90;;;3.70;;
32964;SDS011;19317;48.226;11.686;2023-04-15T14:07:38;3.60;;;3.30;;
32964;SDS011;19317;48.226;11.686;2023-04-15T14:12:29;3.40;;;3.10;;
32964;SDS011;19317;48.226;11.686;2023-04-15T14:17:19;4.07;;;3.53;;
32964;SDS011;19317;48.226;11.686;2023-04-15T14:22:10;4.20;;;3.73;;
32964;SDS011;19317;48.226;11.686;2023-04-15T14:27:00;3.40;;;2.87;;
32964;SDS011;19317;48.226;11.686;2023-04-15T14:31:51;5.07;;;3.67;;
32964;SDS011;19317;48.226;11.686;2023-04-15T14:36:42;4.67;;;3.47;;
32964;SDS011;19317;48.226;11.686;2023-04-15T14:41:33;3.80;;;3.50;;
32964;SDS011;19317;48.226;11.686;2023-04-15T14:46:24;6.07;;;5.47;;
32964;SDS011;19317;48.226;11.686;2023-04-15T14:51:15;4.80;;;4.10;;
32964;SDS011;19317;48.226;11.686;2023-04-15T14:56:05;4.70;;;4.30;;
32964;SDS011;19317;48.226;11.686;2023-04-15T15:00:56;4.37;;;3.97;;
32964;SDS011;19317;48.226;11.686;2023-04-15T15:05:46;3.90;;;3.60;;
32964;SDS011;19317;48.226;11.686;2023-04-15T15:10:37;4.57;;;4.03;;
32964;SDS011;19317;48.226;11.686;2023-04-15T15:15:28;4.27;;;3.30;;
32964;SDS011;19317;48.226;11.686;2023-04-15T15:20:19;3.40;;;3.10;;
32964;SDS011;19317;48.226;11.686;2023-04-15T15:25:09;3.57;;;3.07;;
32964;SDS011;19317;48.226;11.686;2023-04-15T15:30:00;3.93;;;3.23;;
32964;SDS011;19317;48.226;11.686;2023-04-15T15:34:50;2.60;;;2.40;;
32964;SDS011;19317;48.226;11.686;2023-04-15T15:39:41;4.00;;;3.30;;
32964;SDS011;19317;48.226;11.686;2023-04-15T15:44:31;3.37;;;3.07;;
32964;SDS011;19317;48.226;11.686;2023-04-15T15:49:22;3.50;;;3.20;;
32964;SDS011;19317;48.226;11.686;2023-04-15T15:54:12;4.27;;;3.50;;
32964;SDS011;19317;48.226;11.686;2023-04-15T15:59:02;3.57;;;3.20;;
32964;SDS011;19317;48.226;11.686;2023-04-15T16:03:53;3.43;;;3.13;;
32964;SDS011;19317;48.226;11.686;2023-04-15T16:08:43;4.13;;;3.23;;
32964;SDS011;19317;48.226;11.686;2023-04-15T16:13:34;3.67;;;3.27;;
32964;SDS011;19317;48.226;11.686;2023-04-15T16:18:24;3.77;;;3.47;;
32964;SDS011;19317;48.226;11.686;2023-04-15T16:23:15;3.53;;;3.23;;
32964;SDS011;19317;48.226;11.686;2023-04-15T16:28:06;3.73;;;3.33;;
32964;SDS011;19317;48.226;11.686;2023-04-15T16:32:56;6.97;;;4.57;;
32964;SDS011;19317;48.226;11.686;2023-04-15T16:37:47;3.97;;;3.53;;
32964;SDS011;19317;48.226;11.686;2023-04-15T16:42:37;3.50;;;3.20;;
32964;SDS011;19317;48.226;11.686;2023-04-15T16:47:27;3.30;;;3.00;;
32964;SDS011;19317;48.226;11.686;2023-04-15T16:52:18;3.30;;;3.10;;
32964;SDS011;19317;48.226;11.686;2023-04-15T16:57:08;3.50;;;3.20;;
32964;SDS011;19317;48.226;11.686;2023-04-15T17:01:59;3.40;;;3.10;;
32964;SDS011;19317;48.226;11.686;2023-04-15T17:06:49;5.87;;;3.10;;
32964;SDS011;19317;48.226;11.686;2023-04-15T17:11:40;3.37;;;3.10;;
32964;SDS011;19317;48.226;11.686;2023-04-15T17:16:30;4.37;;;2.80;;
32964;SDS011;19317;48.226;11.686;2023-04-15T17:21:21;2.83;;;2.63;;
32964;SDS011;19317;48.226;11.686;2023-04-15T17:26:11;3.10;;;2.80;;
32964;SDS011;19317;48.226;11.686;2023-04-15T17:31:02;3.40;;;2.70;;
32964;SDS011;19317;48.226;11.686;2023-04-15T17:35:53;3.83;;;3.53;;
32964;SDS011;19317;48.226;11.686;2023-04-15T17:40:43;3.17;;;2.87;;
32964;SDS011;19317;48.226;11.686;2023-04-15T17:45:34;3.57;;;2.70;;
32964;SDS011;19317;48.226;11.686;2023-04-15T17:50:24;3.80;;;2.90;;
32964;SDS011;19317;48.226;11.686;2023-04-15T17:55:15;2.90;;;2.60;;
32964;SDS011;19317;48.226;11.686;2023-04-15T18:00:05;3.10;;;2.90;;
32964;SDS011;19317;48.226;11.686;2023-04-15T18:04:57;2.90;;;2.70;;
32964;SDS011;19317;48.226;11.686;2023-04-15T18:09:48;3.50;;;2.80;;
32964;SDS011;19317;48.226;11.686;2023-04-15T18:14:38;3.07;;;2.77;;
32964;SDS011;19317;48.226;11.686;2023-04-15T18:19:29;3.40;;;3.10;;
32964;SDS011;19317;48.226;11.686;2023-04-15T18:24:19;3.70;;;3.07;;
32964;SDS011;19317;48.226;11.686;2023-04-15T18:29:10;4.70;;;3.40;;
32964;SDS011;19317;48.226;11.686;2023-04-15T18:34:01;3.83;;;3.17;;
32964;SDS011;19317;48.226;11.686;2023-04-15T18:38:51;4.07;;;3.33;;
32964;SDS011;19317;48.226;11.686;2023-04-15T18:43:42;4.10;;;3.50;;
32964;SDS011;19317;48.226;11.686;2023-04-15T18:48:32;3.83;;;3.50;;
32964;SDS011;19317;48.226;11.686;2023-04-15T18:53:23;5.07;;;3.43;;
32964;SDS011;19317;48.226;11.686;2023-04-15T18:58:13;3.80;;;3.50;;
32964;SDS011;19317;48.226;11.686;2023-04-15T19:03:04;4.00;;;3.60;;
32964;SDS011;19317;48.226;11.686;2023-04-15T19:07:54;3.63;;;3.33;;
32964;SDS011;19317;48.226;11.686;2023-04-15T19:12:44;4.20;;;3.60;;
32964;SDS011;19317;48.226;11.686;2023-04-15T19:17:35;3.97;;;3.60;;
32964;SDS011;19317;48.226;11.686;2023-04-15T19:22:27;5.00;;;3.70;;
32964;SDS011;19317;48.226;11.686;2023-04-15T19:27:18;3.63;;;3.33;;
32964;SDS011;19317;48.226;11.686;2023-04-15T19:32:09;4.00;;;3.57;;
32964;SDS011;19317;48.226;11.686;2023-04-15T19:36:59;5.67;;;3.57;;
32964;SDS011;19317;48.226;11.686;2023-04-15T19:41:50;5.33;;;3.63;;
32964;SDS011;19317;48.226;11.686;2023-04-15T19:46:40;4.27;;;3.80;;
32964;SDS011;19317;48.226;11.686;2023-04-15T19:51:31;5.00;;;4.00;;
32964;SDS011;19317;48.226;11.686;2023-04-15T19:56:22;5.20;;;4.20;;
32964;SDS011;19317;48.226;11.686;2023-04-15T20:01:13;4.40;;;4.00;;
32964;SDS011;19317;48.226;11.686;2023-04-15T20:06:03;4.80;;;3.93;;
32964;SDS011;19317;48.226;11.686;2023-04-15T20:10:54;6.37;;;3.83;;
32964;SDS011;19317;48.226;11.686;2023-04-15T20:15:45;4.37;;;3.97;;
32964;SDS011;19317;48.226;11.686;2023-04-15T20:20:37;4.23;;;3.60;;
32964;SDS011;19317;48.226;11.686;2023-04-15T20:25:28;4.80;;;4.40;;
32964;SDS011;19317;48.226;11.686;2023-04-15T20:30:18;4.67;;;4.23;;
32964;SDS011;19317;48.226;11.686;2023-04-15T20:35:09;4.63;;;3.97;;
32964;SDS011;19317;48.226;11.686;2023-04-15T20:39:59;5.77;;;4.07;;
32964;SDS011;19317;48.226;11.686;2023-04-15T20:44:50;5.77;;;4.27;;
32964;SDS011;19317;48.226;11.686;2023-04-15T20:49:41;5.20;;;4.50;;
32964;SDS011;19317;48.226;11.686;2023-04-15T20:54:31;5.87;;;5.20;;
32964;SDS011;19317;48.226;11.686;2023-04-15T20:59:22;4.80;;;4.17;;
32964;SDS011;19317;48.226;11.686;2023-04-15T21:04:13;4.50;;;4.10;;
32964;SDS011;19317;48.226;11.686;2023-04-15T21:09:04;4.83;;;4.33;;
32964;SDS011;19317;48.226;11.686;2023-04-15T21:13:54;4.77;;;4.03;;
32964;SDS011;19317;48.226;11.686;2023-04-15T21:18:44;4.30;;;3.90;;
32964;SDS011;19317;48.226;11.686;2023-04-15T21:23:35;2.83;;;2.63;;
32964;SDS011;19317;48.226;11.686;2023-04-15T21:28:25;3.30;;;3.10;;
32964;SDS011;19317;48.226;11.686;2023-04-15T21:33:16;3.23;;;3.03;;
32964;SDS011;19317;48.226;11.686;2023-04-15T21:38:07;3.40;;;3.10;;
32964;SDS011;19317;48.226;11.686;2023-04-15T21:42:57;3.70;;;3.40;;
32964;SDS011;19317;48.226;11.686;2023-04-15T21:47:48;4.43;;;3.50;;
32964;SDS011;19317;48.226;11.686;2023-04-15T21:52:38;4.13;;;3.73;;
32964;SDS011;19317;48.226;11.686;2023-04-15T21:57:29;4.53;;;4.03;;
32964;SDS011;19317;48.226;11.686;2023-04-15T22:02:19;4.23;;;3.80;;
32964;SDS011;19317;48.226;11.686;2023-04-15T22:07:10;5.47;;;4.20;;
32964;SDS011;19317;48.226;11.686;2023-04-15T22:12:02;6.73;;;3.70;;
32964;SDS011;19317;48.226;11.686;2023-04-15T22:16:53;5.77;;;4.23;;
32964;SDS011;19317;48.226;11.686;2023-04-15T22:21:43;3.77;;;3.20;;
32964;SDS011;19317;48.226;11.686;2023-04-15T22:26:33;3.07;;;2.80;;
32964;SDS011;19317;48.226;11.686;2023-04-15T22:31:24;3.17;;;2.87;;
32964;SDS011;19317;48.226;11.686;2023-04-15T22:36:14;2.70;;;2.50;;
32964;SDS011;19317;48.226;11.686;2023-04-15T22:41:05;2.73;;;2.53;;
32964;SDS011;19317;48.226;11.686;2023-04-15T22:45:55;3.60;;;2.80;;
32964;SDS011;19317;48.226;11.686;2023-04-15T22:50:46;2.13;;;2.03;;
32964;SDS011;19317;48.226;11.686;2023-04-15T22:55:36;2.87;;;2.67;;
32964;SDS011;19317;48.226;11.686;2023-04-15T23:00:27;2.43;;;2.23;;
32964;SDS011;19317;48.226;11.686;2023-04-15T23:05:17;2.80;;;2.60;;
32964;SDS011;19317;48.226;11.686;2023-04-15T23:10:08;2.70;;;2.50;;
32964;SDS011;19317;48.226;11.686;2023-04-15T23:14:58;2.47;;;2.27;;
32964;SDS011;19317;48.226;11.686;2023-04-15T23:19:49;2.20;;;2.10;;
32964;SDS011;19317;48.226;11.686;2023-04-15T23:24:39;2.93;;;2.70;;
32964;SDS011;19317;48.226;11.686;2023-04-15T23:29:29;2.30;;;2.10;;
32964;SDS011;19317;48.226;11.686;2023-04-15T23:34:20;2.90;;;2.70;;
32964;SDS011;19317;48.226;11.686;2023-04-15T23:39:10;2.40;;;2.23;;
32964;SDS011;19317;48.226;11.686;2023-04-15T23:44:01;2.23;;;2.03;;
32964;SDS011;19317;48.226;11.686;2023-04-15T23:48:51;2.40;;;2.20;;
32964;SDS011;19317;48.226;11.686;2023-04-15T23:53:42;2.60;;;2.40;;
32964;SDS011;19317;48.226;11.686;2023-04-15T23:58:32;2.40;;;2.20;;
